sensor_id;sensor_type;location;lat;lon;timestamp;pressure;altitude;pressure_sealevel;temperature;humidity
64668;BME280;51077;42.716;23.344;2022-08-21T00:00:24;94851.31;;;20.18;74.70
64668;BME280;51077;42.716;23.344;2022-08-21T00:02:59;94842.81;;;20.16;74.84
64668;BME280;51077;42.716;23.344;2022-08-21T00:05:26;94845.72;;;20.18;75.00
64668;BME280;51077;42.716;23.344;2022-08-21T00:07:52;94835.75;;;20.15;75.04
64668;BME280;51077;42.716;23.344;2022-08-21T00:10:19;94822.84;;;20.09;75.41
64668;BME280;51077;42.716;23.344;2022-08-21T00:12:45;94820.66;;;20.08;75.07
64668;BME280;51077;42.716;23.344;2022-08-21T00:15:15;94837.38;;;20.08;75.48
64668;BME280;51077;42.716;23.344;2022-08-21T00:17:41;94824.78;;;20.07;75.24
64668;BME280;51077;42.716;23.344;2022-08-21T00:20:09;94826.78;;;20.06;75.65
64668;BME280;51077;42.716;23.344;2022-08-21T00:22:35;94819.75;;;20.05;75.42
64668;BME280;51077;42.716;23.344;2022-08-21T00:25:03;94823.88;;;20.04;75.56
64668;BME280;51077;42.716;23.344;2022-08-21T00:27:28;94822.41;;;20.03;75.75
64668;BME280;51077;42.716;23.344;2022-08-21T00:29:54;94824.31;;;20.01;75.81
64668;BME280;51077;42.716;23.344;2022-08-21T00:32:25;94813.78;;;19.99;75.83
64668;BME280;51077;42.716;23.344;2022-08-21T00:34:51;94808.19;;;19.99;75.99
64668;BME280;51077;42.716;23.344;2022-08-21T00:37:17;94805.41;;;19.99;75.82
64668;BME280;51077;42.716;23.344;2022-08-21T00:39:43;94807.47;;;19.99;75.94
64668;BME280;51077;42.716;23.344;2022-08-21T00:42:09;94807.47;;;19.99;75.79
64668;BME280;51077;42.716;23.344;2022-08-21T00:44:35;94815.81;;;19.99;75.80
64668;BME280;51077;42.716;23.344;2022-08-21T00:47:01;94816.56;;;19.99;75.85
64668;BME280;51077;42.716;23.344;2022-08-21T00:49:26;94814.34;;;19.98;75.83
64668;BME280;51077;42.716;23.344;2022-08-21T00:51:55;94821.38;;;19.99;75.69
64668;BME280;51077;42.716;23.344;2022-08-21T00:54:25;94823.59;;;20.00;75.78
64668;BME280;51077;42.716;23.344;2022-08-21T00:57:01;94821.38;;;19.99;75.82
64668;BME280;51077;42.716;23.344;2022-08-21T00:59:29;94818.44;;;19.97;75.85
64668;BME280;51077;42.716;23.344;2022-08-21T01:01:57;94814.94;;;19.96;75.74
64668;BME280;51077;42.716;23.344;2022-08-21T01:04:23;94812.75;;;19.95;75.79
64668;BME280;51077;42.716;23.344;2022-08-21T01:06:48;94807.16;;;19.95;76.04
64668;BME280;51077;42.716;23.344;2022-08-21T01:09:14;94805.13;;;19.95;75.83
64668;BME280;51077;42.716;23.344;2022-08-21T01:11:40;94810.09;;;19.97;76.04
64668;BME280;51077;42.716;23.344;2022-08-21T01:14:08;94801.72;;;19.97;76.09
64668;BME280;51077;42.716;23.344;2022-08-21T01:16:38;94802.63;;;19.99;75.88
64668;BME280;51077;42.716;23.344;2022-08-21T01:19:04;94789.25;;;19.98;76.10
64668;BME280;51077;42.716;23.344;2022-08-21T01:21:30;94790.75;;;19.99;75.86
64668;BME280;51077;42.716;23.344;2022-08-21T01:23:57;94795.59;;;19.98;76.19
64668;BME280;51077;42.716;23.344;2022-08-21T01:26:26;94792.06;;;19.98;76.21
64668;BME280;51077;42.716;23.344;2022-08-21T01:31:27;94799.69;;;19.97;76.28
64668;BME280;51077;42.716;23.344;2022-08-21T01:33:54;94794.09;;;19.97;76.22
64668;BME280;51077;42.716;23.344;2022-08-21T01:36:20;94795.59;;;19.98;76.13
64668;BME280;51077;42.716;23.344;2022-08-21T01:38:46;94794.84;;;19.98;76.15
64668;BME280;51077;42.716;23.344;2022-08-21T01:41:13;94793.38;;;19.97;76.27
64668;BME280;51077;42.716;23.344;2022-08-21T01:43:38;94798.22;;;19.96;76.24
64668;BME280;51077;42.716;23.344;2022-08-21T01:46:04;94806.56;;;19.96;76.21
64668;BME280;51077;42.716;23.344;2022-08-21T01:48:29;94803.06;;;19.96;76.19
64668;BME280;51077;42.716;23.344;2022-08-21T01:50:55;94803.66;;;19.94;76.03
64668;BME280;51077;42.716;23.344;2022-08-21T01:53:21;94802.91;;;19.94;76.25
64668;BME280;51077;42.716;23.344;2022-08-21T01:55:46;94802.91;;;19.94;76.18
64668;BME280;51077;42.716;23.344;2022-08-21T01:58:12;94804.09;;;19.91;76.19
64668;BME280;51077;42.716;23.344;2022-08-21T02:00:37;94799.25;;;19.91;76.17
64668;BME280;51077;42.716;23.344;2022-08-21T02:03:03;94806.72;;;19.89;76.24
64668;BME280;51077;42.716;23.344;2022-08-21T02:05:28;94802.63;;;19.90;76.21
64668;BME280;51077;42.716;23.344;2022-08-21T02:07:54;94800.41;;;19.88;76.37
64668;BME280;51077;42.716;23.344;2022-08-21T02:10:27;94805.25;;;19.88;76.05
64668;BME280;51077;42.716;23.344;2022-08-21T02:12:53;94812.88;;;19.87;75.97
64668;BME280;51077;42.716;23.344;2022-08-21T02:15:19;94816.81;;;19.84;75.74
64668;BME280;51077;42.716;23.344;2022-08-21T02:17:47;94818.16;;;19.83;75.67
64668;BME280;51077;42.716;23.344;2022-08-21T02:20:21;94809.78;;;19.83;75.55
64668;BME280;51077;42.716;23.344;2022-08-21T02:22:47;94814.47;;;19.80;75.39
64668;BME280;51077;42.716;23.344;2022-08-21T02:25:13;94813.59;;;19.78;75.45
64668;BME280;51077;42.716;23.344;2022-08-21T02:27:43;94804.66;;;19.79;75.52
64668;BME280;51077;42.716;23.344;2022-08-21T02:30:16;94810.81;;;19.78;75.33
64668;BME280;51077;42.716;23.344;2022-08-21T02:32:41;94813.44;;;19.76;75.17
64668;BME280;51077;42.716;23.344;2022-08-21T02:35:08;94819.00;;;19.76;75.10
64668;BME280;51077;42.716;23.344;2022-08-21T02:37:41;94823.53;;;19.71;74.91
64668;BME280;51077;42.716;23.344;2022-08-21T02:40:07;94823.97;;;19.68;74.76
64668;BME280;51077;42.716;23.344;2022-08-21T02:42:36;94828.69;;;19.65;74.97
64668;BME280;51077;42.716;23.344;2022-08-21T02:45:02;94819.28;;;19.61;75.35
64668;BME280;51077;42.716;23.344;2022-08-21T02:47:28;94821.31;;;19.60;75.77
64668;BME280;51077;42.716;23.344;2022-08-21T02:49:53;94817.81;;;19.59;75.86
64668;BME280;51077;42.716;23.344;2022-08-21T02:52:19;94819.84;;;19.59;76.04
64668;BME280;51077;42.716;23.344;2022-08-21T02:54:44;94828.94;;;19.59;76.06
64668;BME280;51077;42.716;23.344;2022-08-21T02:57:09;94828.94;;;19.59;75.88
64668;BME280;51077;42.716;23.344;2022-08-21T02:59:35;94822.63;;;19.59;76.06
64668;BME280;51077;42.716;23.344;2022-08-21T03:02:01;94817.81;;;19.59;76.11
64668;BME280;51077;42.716;23.344;2022-08-21T03:04:27;94819.28;;;19.61;76.12
64668;BME280;51077;42.716;23.344;2022-08-21T03:06:52;94831.88;;;19.62;76.32
64668;BME280;51077;42.716;23.344;2022-08-21T03:09:17;94826.88;;;19.60;76.37
64668;BME280;51077;42.716;23.344;2022-08-21T03:11:43;94826.31;;;19.62;76.22
64668;BME280;51077;42.716;23.344;2022-08-21T03:14:09;94830.56;;;19.63;76.25
64668;BME280;51077;42.716;23.344;2022-08-21T03:16:34;94840.41;;;19.64;76.22
64668;BME280;51077;42.716;23.344;2022-08-21T03:19:00;94832.06;;;19.64;76.42
64668;BME280;51077;42.716;23.344;2022-08-21T03:21:26;94835.56;;;19.64;76.56
64668;BME280;51077;42.716;23.344;2022-08-21T03:23:51;94827.78;;;19.63;76.55
64668;BME280;51077;42.716;23.344;2022-08-21T03:26:19;94826.31;;;19.62;76.66
64668;BME280;51077;42.716;23.344;2022-08-21T03:28:44;94830.25;;;19.58;76.55
64668;BME280;51077;42.716;23.344;2022-08-21T03:31:09;94834.19;;;19.55;76.54
64668;BME280;51077;42.716;23.344;2022-08-21T03:33:35;94832.72;;;19.54;76.53
64668;BME280;51077;42.716;23.344;2022-08-21T03:36:05;94838.16;;;19.52;76.55
64668;BME280;51077;42.716;23.344;2022-08-21T03:38:33;94829.06;;;19.52;76.63
64668;BME280;51077;42.716;23.344;2022-08-21T03:41:00;94832.44;;;19.50;76.66
64668;BME280;51077;42.716;23.344;2022-08-21T03:43:27;94824.66;;;19.49;76.43
64668;BME280;51077;42.716;23.344;2022-08-21T03:45:52;94817.63;;;19.48;76.62
64668;BME280;51077;42.716;23.344;2022-08-21T03:48:18;94822.16;;;19.43;76.56
64668;BME280;51077;42.716;23.344;2022-08-21T03:50:44;94813.66;;;19.41;76.66
64668;BME280;51077;42.716;23.344;2022-08-21T03:53:12;94823.31;;;19.40;76.67
64668;BME280;51077;42.716;23.344;2022-08-21T03:55:38;94824.47;;;19.37;76.86
64668;BME280;51077;42.716;23.344;2022-08-21T03:58:04;94831.22;;;19.34;76.79
64668;BME280;51077;42.716;23.344;2022-08-21T04:00:29;94837.50;;;19.34;77.03
64668;BME280;51077;42.716;23.344;2022-08-21T04:02:55;94842.34;;;19.34;77.00
64668;BME280;51077;42.716;23.344;2022-08-21T04:05:21;94845.13;;;19.34;77.07
64668;BME280;51077;42.716;23.344;2022-08-21T04:08:04;94846.59;;;19.35;77.17
64668;BME280;51077;42.716;23.344;2022-08-21T04:10:33;94844.53;;;19.36;77.34
64668;BME280;51077;42.716;23.344;2022-08-21T04:13:00;94841.16;;;19.37;77.29
64668;BME280;51077;42.716;23.344;2022-08-21T04:15:26;94838.56;;;19.39;77.21
64668;BME280;51077;42.716;23.344;2022-08-21T04:17:52;94844.41;;;19.43;77.15
64668;BME280;51077;42.716;23.344;2022-08-21T04:20:18;94839.16;;;19.47;76.99
64668;BME280;51077;42.716;23.344;2022-08-21T04:22:44;94834.63;;;19.52;76.75
64668;BME280;51077;42.716;23.344;2022-08-21T04:25:10;94837.72;;;19.56;76.64
64668;BME280;51077;42.716;23.344;2022-08-21T04:27:36;94837.47;;;19.62;76.42
64668;BME280;51077;42.716;23.344;2022-08-21T04:30:03;94829.28;;;19.64;76.44
64668;BME280;51077;42.716;23.344;2022-08-21T04:32:29;94826.03;;;19.67;76.36
64668;BME280;51077;42.716;23.344;2022-08-21T04:35:00;94831.16;;;19.71;76.26
64668;BME280;51077;42.716;23.344;2022-08-21T04:37:26;94818.88;;;19.74;76.07
64668;BME280;51077;42.716;23.344;2022-08-21T04:39:52;94835.16;;;19.77;76.06
64668;BME280;51077;42.716;23.344;2022-08-21T04:42:17;94837.19;;;19.77;75.89
64668;BME280;51077;42.716;23.344;2022-08-21T04:44:43;94846.84;;;19.76;75.69
64668;BME280;51077;42.716;23.344;2022-08-21T04:47:08;94834.25;;;19.75;75.69
64668;BME280;51077;42.716;23.344;2022-08-21T04:49:34;94844.06;;;19.76;75.65
64668;BME280;51077;42.716;23.344;2022-08-21T04:52:00;94840.00;;;19.77;76.04
64668;BME280;51077;42.716;23.344;2022-08-21T04:54:27;94840.97;;;19.72;75.83
64668;BME280;51077;42.716;23.344;2022-08-21T04:56:56;94839.69;;;19.73;75.77
64668;BME280;51077;42.716;23.344;2022-08-21T04:59:31;94840.69;;;19.68;75.57
64668;BME280;51077;42.716;23.344;2022-08-21T05:01:58;94840.41;;;19.64;75.63
64668;BME280;51077;42.716;23.344;2022-08-21T05:04:30;94830.81;;;19.57;75.96
64668;BME280;51077;42.716;23.344;2022-08-21T05:06:58;94832.44;;;19.60;76.33
64668;BME280;51077;42.716;23.344;2022-08-21T05:09:24;94837.91;;;19.68;76.09
64668;BME280;51077;42.716;23.344;2022-08-21T05:11:50;94841.44;;;19.68;75.72
64668;BME280;51077;42.716;23.344;2022-08-21T05:14:16;94850.09;;;19.72;75.64
64668;BME280;51077;42.716;23.344;2022-08-21T05:16:42;94845.41;;;19.75;75.25
64668;BME280;51077;42.716;23.344;2022-08-21T05:19:09;94854.03;;;19.79;75.18
64668;BME280;51077;42.716;23.344;2022-08-21T05:21:37;94836.91;;;19.82;74.95
64668;BME280;51077;42.716;23.344;2022-08-21T05:24:03;94839.56;;;19.90;74.69
64668;BME280;51077;42.716;23.344;2022-08-21T05:26:28;94840.16;;;19.98;74.91
64668;BME280;51077;42.716;23.344;2022-08-21T05:28:55;94838.69;;;20.07;74.61
64668;BME280;51077;42.716;23.344;2022-08-21T05:31:21;94840.88;;;20.18;74.44
64668;BME280;51077;42.716;23.344;2022-08-21T05:33:47;94833.72;;;20.25;74.23
64668;BME280;51077;42.716;23.344;2022-08-21T05:36:13;94836.19;;;20.30;74.22
64668;BME280;51077;42.716;23.344;2022-08-21T05:38:38;94837.22;;;20.35;74.21
64668;BME280;51077;42.716;23.344;2022-08-21T05:41:04;94838.38;;;20.42;74.16
64668;BME280;51077;42.716;23.344;2022-08-21T05:43:29;94839.97;;;20.45;73.87
64668;BME280;51077;42.716;23.344;2022-08-21T05:45:55;94834.84;;;20.41;73.28
64668;BME280;51077;42.716;23.344;2022-08-21T05:48:22;94829.44;;;20.43;73.20
64668;BME280;51077;42.716;23.344;2022-08-21T05:50:49;94825.47;;;20.56;73.54
64668;BME280;51077;42.716;23.344;2022-08-21T05:53:15;94824.00;;;20.65;73.24
64668;BME280;51077;42.716;23.344;2022-08-21T05:55:43;94817.50;;;20.72;72.86
64668;BME280;51077;42.716;23.344;2022-08-21T05:58:08;94818.06;;;20.80;72.50
64668;BME280;51077;42.716;23.344;2022-08-21T06:00:34;94828.34;;;20.87;72.69
64668;BME280;51077;42.716;23.344;2022-08-21T06:03:00;94830.09;;;20.92;72.52
64668;BME280;51077;42.716;23.344;2022-08-21T06:05:25;94828.19;;;20.95;72.77
64668;BME280;51077;42.716;23.344;2022-08-21T06:07:51;94823.59;;;20.99;72.79
64668;BME280;51077;42.716;23.344;2022-08-21T06:10:17;94826.53;;;21.01;72.82
64668;BME280;51077;42.716;23.344;2022-08-21T06:12:43;94833.13;;;21.06;72.86
64668;BME280;51077;42.716;23.344;2022-08-21T06:15:09;94828.75;;;21.03;72.07
64668;BME280;51077;42.716;23.344;2022-08-21T06:17:34;94832.66;;;21.09;72.18
64668;BME280;51077;42.716;23.344;2022-08-21T06:20:00;94830.44;;;21.18;71.96
64668;BME280;51077;42.716;23.344;2022-08-21T06:22:25;94825.69;;;21.30;71.54
64668;BME280;51077;42.716;23.344;2022-08-21T06:24:51;94828.28;;;21.47;71.58
64668;BME280;51077;42.716;23.344;2022-08-21T06:27:16;94819.66;;;21.65;70.89
64668;BME280;51077;42.716;23.344;2022-08-21T06:29:43;94828.03;;;21.86;70.52
64668;BME280;51077;42.716;23.344;2022-08-21T06:32:10;94825.81;;;22.06;69.58
64668;BME280;51077;42.716;23.344;2022-08-21T06:34:37;94826.69;;;22.30;68.90
64668;BME280;51077;42.716;23.344;2022-08-21T06:37:04;94822.53;;;22.52;67.29
64668;BME280;51077;42.716;23.344;2022-08-21T06:39:29;94826.09;;;22.76;66.77
64668;BME280;51077;42.716;23.344;2022-08-21T06:41:55;94829.22;;;23.04;66.45
64668;BME280;51077;42.716;23.344;2022-08-21T06:44:21;94828.75;;;23.31;65.35
64668;BME280;51077;42.716;23.344;2022-08-21T06:46:46;94831.78;;;23.58;64.62
64668;BME280;51077;42.716;23.344;2022-08-21T06:49:12;94831.28;;;23.86;63.64
64668;BME280;51077;42.716;23.344;2022-08-21T06:51:38;94830.50;;;24.08;62.92
64668;BME280;51077;42.716;23.344;2022-08-21T06:54:03;94826.56;;;24.25;61.96
64668;BME280;51077;42.716;23.344;2022-08-21T06:56:29;94829.94;;;24.36;61.35
64668;BME280;51077;42.716;23.344;2022-08-21T06:58:54;94833.31;;;24.46;60.95
64668;BME280;51077;42.716;23.344;2022-08-21T07:01:24;94830.03;;;24.49;60.52
64668;BME280;51077;42.716;23.344;2022-08-21T07:03:50;94834.91;;;24.49;59.98
64668;BME280;51077;42.716;23.344;2022-08-21T07:06:15;94844.28;;;24.53;60.26
64668;BME280;51077;42.716;23.344;2022-08-21T07:08:41;94850.84;;;24.58;59.83
64668;BME280;51077;42.716;23.344;2022-08-21T07:11:17;94847.41;;;24.60;59.58
64668;BME280;51077;42.716;23.344;2022-08-21T07:13:42;94850.34;;;24.62;59.55
64668;BME280;51077;42.716;23.344;2022-08-21T07:16:08;94842.97;;;24.68;59.26
64668;BME280;51077;42.716;23.344;2022-08-21T07:18:34;94836.97;;;24.74;59.09
64668;BME280;51077;42.716;23.344;2022-08-21T07:21:01;94833.00;;;24.91;58.66
64668;BME280;51077;42.716;23.344;2022-08-21T07:23:30;94833.25;;;25.09;58.19
64668;BME280;51077;42.716;23.344;2022-08-21T07:25:57;94834.22;;;25.27;57.60
64668;BME280;51077;42.716;23.344;2022-08-21T07:28:24;94834.97;;;25.41;56.90
64668;BME280;51077;42.716;23.344;2022-08-21T07:30:51;94831.75;;;25.61;56.31
64668;BME280;51077;42.716;23.344;2022-08-21T07:33:18;94826.66;;;25.85;55.44
64668;BME280;51077;42.716;23.344;2022-08-21T07:35:43;94828.94;;;26.02;55.42
64668;BME280;51077;42.716;23.344;2022-08-21T07:38:09;94817.38;;;26.10;55.01
64668;BME280;51077;42.716;23.344;2022-08-21T07:40:34;94817.25;;;26.07;55.09
64668;BME280;51077;42.716;23.344;2022-08-21T07:43:00;94811.34;;;26.01;54.87
64668;BME280;51077;42.716;23.344;2022-08-21T07:45:25;94811.66;;;25.94;54.65
64668;BME280;51077;42.716;23.344;2022-08-21T07:47:51;94811.56;;;25.92;54.57
64668;BME280;51077;42.716;23.344;2022-08-21T07:50:17;94806.47;;;25.88;54.77
64668;BME280;51077;42.716;23.344;2022-08-21T07:52:43;94806.91;;;25.83;54.63
64668;BME280;51077;42.716;23.344;2022-08-21T07:55:11;94804.81;;;25.83;54.57
64668;BME280;51077;42.716;23.344;2022-08-21T07:57:37;94810.13;;;25.77;54.63
64668;BME280;51077;42.716;23.344;2022-08-21T08:00:05;94806.56;;;25.76;54.97
64668;BME280;51077;42.716;23.344;2022-08-21T08:02:31;94812.59;;;25.85;55.21
64668;BME280;51077;42.716;23.344;2022-08-21T08:05:02;94808.25;;;25.95;53.98
64668;BME280;51077;42.716;23.344;2022-08-21T08:07:28;94810.78;;;26.19;53.65
64668;BME280;51077;42.716;23.344;2022-08-21T08:09:54;94807.91;;;26.46;53.28
64668;BME280;51077;42.716;23.344;2022-08-21T08:12:19;94805.53;;;26.70;52.48
64668;BME280;51077;42.716;23.344;2022-08-21T08:14:45;94806.28;;;27.02;52.41
64668;BME280;51077;42.716;23.344;2022-08-21T08:17:11;94804.50;;;27.25;51.11
64668;BME280;51077;42.716;23.344;2022-08-21T08:19:38;94808.03;;;27.41;50.48
64668;BME280;51077;42.716;23.344;2022-08-21T08:22:17;94806.66;;;27.58;49.88
64668;BME280;51077;42.716;23.344;2022-08-21T08:24:45;94799.09;;;27.63;50.50
64668;BME280;51077;42.716;23.344;2022-08-21T08:27:10;94793.28;;;27.59;49.53
64668;BME280;51077;42.716;23.344;2022-08-21T08:29:36;94794.75;;;27.60;50.09
64668;BME280;51077;42.716;23.344;2022-08-21T08:32:02;94798.22;;;27.58;49.97
64668;BME280;51077;42.716;23.344;2022-08-21T08:34:28;94805.22;;;27.57;49.40
64668;BME280;51077;42.716;23.344;2022-08-21T08:36:53;94799.56;;;27.57;49.29
64668;BME280;51077;42.716;23.344;2022-08-21T08:39:19;94798.69;;;27.52;49.37
64668;BME280;51077;42.716;23.344;2022-08-21T08:41:47;94796.47;;;27.51;49.86
64668;BME280;51077;42.716;23.344;2022-08-21T08:44:16;94804.41;;;27.54;49.69
64668;BME280;51077;42.716;23.344;2022-08-21T08:46:44;94798.69;;;27.52;49.03
64668;BME280;51077;42.716;23.344;2022-08-21T08:49:19;94795.41;;;27.42;49.12
64668;BME280;51077;42.716;23.344;2022-08-21T08:51:50;94797.53;;;27.26;49.13
64668;BME280;51077;42.716;23.344;2022-08-21T08:54:21;94804.50;;;27.25;49.21
64668;BME280;51077;42.716;23.344;2022-08-21T08:56:51;94791.50;;;27.34;49.13
64668;BME280;51077;42.716;23.344;2022-08-21T08:59:27;94791.69;;;27.38;48.96
64668;BME280;51077;42.716;23.344;2022-08-21T09:01:58;94792.88;;;27.17;49.14
64668;BME280;51077;42.716;23.344;2022-08-21T09:04:26;94797.03;;;27.00;49.13
64668;BME280;51077;42.716;23.344;2022-08-21T09:15:03;94779.06;;;27.23;48.42
64668;BME280;51077;42.716;23.344;2022-08-21T09:17:37;94769.97;;;27.24;48.32
64668;BME280;51077;42.716;23.344;2022-08-21T09:20:20;94771.69;;;27.16;48.28
64668;BME280;51077;42.716;23.344;2022-08-21T09:23:17;94765.25;;;27.13;48.59
64668;BME280;51077;42.716;23.344;2022-08-21T09:28:33;94765.78;;;27.41;48.09
64668;BME280;51077;42.716;23.344;2022-08-21T09:31:01;94759.88;;;27.69;47.68
64668;BME280;51077;42.716;23.344;2022-08-21T09:33:28;94760.94;;;27.93;47.42
64668;BME280;51077;42.716;23.344;2022-08-21T09:35:55;94766.13;;;28.17;46.86
64668;BME280;51077;42.716;23.344;2022-08-21T09:38:32;94757.75;;;28.54;46.04
64668;BME280;51077;42.716;23.344;2022-08-21T09:41:07;94766.78;;;28.87;45.25
64668;BME280;51077;42.716;23.344;2022-08-21T09:43:34;94755.31;;;29.00;43.46
64668;BME280;51077;42.716;23.344;2022-08-21T09:46:08;94759.59;;;29.21;42.50
64668;BME280;51077;42.716;23.344;2022-08-21T09:48:55;94762.13;;;29.33;43.11
64668;BME280;51077;42.716;23.344;2022-08-21T09:51:27;94761.69;;;29.21;42.88
64668;BME280;51077;42.716;23.344;2022-08-21T09:53:58;94758.13;;;29.00;43.42
64668;BME280;51077;42.716;23.344;2022-08-21T09:56:37;94752.91;;;28.75;43.66
64668;BME280;51077;42.716;23.344;2022-08-21T09:59:28;94743.97;;;28.63;44.24
64668;BME280;51077;42.716;23.344;2022-08-21T10:01:58;94752.34;;;28.43;44.34
64668;BME280;51077;42.716;23.344;2022-08-21T10:04:35;94745.25;;;28.24;45.24
64668;BME280;51077;42.716;23.344;2022-08-21T10:07:12;94742.03;;;27.96;45.58
64668;BME280;51077;42.716;23.344;2022-08-21T10:09:40;94737.06;;;27.78;46.01
64668;BME280;51077;42.716;23.344;2022-08-21T10:12:22;94736.75;;;27.54;46.83
64668;BME280;51077;42.716;23.344;2022-08-21T10:15:08;94735.13;;;27.34;47.35
64668;BME280;51077;42.716;23.344;2022-08-21T10:17:54;94723.22;;;27.03;47.47
64668;BME280;51077;42.716;23.344;2022-08-21T10:20:35;94722.25;;;26.81;48.51
64668;BME280;51077;42.716;23.344;2022-08-21T10:25:58;94725.06;;;26.65;48.60
64668;BME280;51077;42.716;23.344;2022-08-21T10:28:36;94721.72;;;26.69;48.74
64668;BME280;51077;42.716;23.344;2022-08-21T10:31:18;94725.06;;;26.65;48.75
64668;BME280;51077;42.716;23.344;2022-08-21T10:34:22;94720.16;;;26.97;48.08
64668;BME280;51077;42.716;23.344;2022-08-21T10:37:00;94716.19;;;27.18;48.17
64668;BME280;51077;42.716;23.344;2022-08-21T10:55:26;94692.53;;;30.08;42.20
64668;BME280;51077;42.716;23.344;2022-08-21T10:58:04;94693.66;;;30.66;40.90
64668;BME280;51077;42.716;23.344;2022-08-21T11:00:41;94689.75;;;31.01;39.84
64668;BME280;51077;42.716;23.344;2022-08-21T11:03:13;94681.69;;;31.18;39.26
64668;BME280;51077;42.716;23.344;2022-08-21T11:05:57;94678.16;;;31.17;39.35
64668;BME280;51077;42.716;23.344;2022-08-21T11:08:36;94688.47;;;31.07;38.88
64668;BME280;51077;42.716;23.344;2022-08-21T11:11:15;94682.28;;;30.88;39.23
64668;BME280;51077;42.716;23.344;2022-08-21T11:13:46;94671.00;;;31.16;38.98
64668;BME280;51077;42.716;23.344;2022-08-21T11:18:58;94652.72;;;31.75;37.88
64668;BME280;51077;42.716;23.344;2022-08-21T11:21:36;94665.84;;;31.89;37.55
64668;BME280;51077;42.716;23.344;2022-08-21T11:24:24;94656.44;;;32.10;36.23
64668;BME280;51077;42.716;23.344;2022-08-21T11:29:34;94661.09;;;32.60;36.00
64668;BME280;51077;42.716;23.344;2022-08-21T11:35:16;94653.56;;;32.72;35.81
64668;BME280;51077;42.716;23.344;2022-08-21T11:48:08;94647.84;;;31.50;36.67
64668;BME280;51077;42.716;23.344;2022-08-21T11:50:37;94641.56;;;31.01;37.71
64668;BME280;51077;42.716;23.344;2022-08-21T11:53:18;94659.19;;;30.26;38.22
64668;BME280;51077;42.716;23.344;2022-08-21T11:56:00;94644.91;;;30.00;38.55
64668;BME280;51077;42.716;23.344;2022-08-21T11:58:39;94640.63;;;30.21;38.79
64668;BME280;51077;42.716;23.344;2022-08-21T12:01:11;94636.47;;;30.02;38.91
64668;BME280;51077;42.716;23.344;2022-08-21T12:03:52;94644.72;;;29.72;39.67
64668;BME280;51077;42.716;23.344;2022-08-21T12:06:33;94637.41;;;29.23;40.59
64668;BME280;51077;42.716;23.344;2022-08-21T12:09:04;94643.06;;;29.03;41.29
64668;BME280;51077;42.716;23.344;2022-08-21T12:11:30;94637.22;;;28.97;41.15
64668;BME280;51077;42.716;23.344;2022-08-21T12:24:44;94622.81;;;28.13;43.36
64668;BME280;51077;42.716;23.344;2022-08-21T12:27:18;94632.81;;;27.98;43.58
64668;BME280;51077;42.716;23.344;2022-08-21T12:29:48;94631.84;;;27.74;43.98
64668;BME280;51077;42.716;23.344;2022-08-21T12:34:58;94642.28;;;27.53;44.83
64668;BME280;51077;42.716;23.344;2022-08-21T12:37:46;94640.66;;;27.48;44.95
64668;BME280;51077;42.716;23.344;2022-08-21T12:40:36;94640.88;;;27.37;45.20
64668;BME280;51077;42.716;23.344;2022-08-21T12:43:03;94624.75;;;27.21;45.65
64668;BME280;51077;42.716;23.344;2022-08-21T12:45:45;94628.03;;;27.00;45.84
64668;BME280;51077;42.716;23.344;2022-08-21T12:48:35;94630.44;;;26.74;46.41
64668;BME280;51077;42.716;23.344;2022-08-21T12:51:15;94626.06;;;26.71;46.96
64668;BME280;51077;42.716;23.344;2022-08-21T12:53:55;94626.44;;;26.63;47.28
64668;BME280;51077;42.716;23.344;2022-08-21T12:56:24;94621.25;;;26.42;47.26
64668;BME280;51077;42.716;23.344;2022-08-21T12:58:53;94623.00;;;26.49;47.54
64668;BME280;51077;42.716;23.344;2022-08-21T13:01:27;94629.69;;;26.42;47.50
64668;BME280;51077;42.716;23.344;2022-08-21T13:03:54;94625.16;;;26.35;47.64
64668;BME280;51077;42.716;23.344;2022-08-21T13:06:22;94623.50;;;26.14;48.25
64668;BME280;51077;42.716;23.344;2022-08-21T13:08:51;94619.50;;;26.19;48.28
64668;BME280;51077;42.716;23.344;2022-08-21T13:11:20;94621.25;;;26.26;48.37
64668;BME280;51077;42.716;23.344;2022-08-21T13:13:51;94613.72;;;26.30;48.17
64668;BME280;51077;42.716;23.344;2022-08-21T13:16:26;94618.88;;;26.36;47.98
64668;BME280;51077;42.716;23.344;2022-08-21T13:19:01;94613.91;;;26.35;48.29
64668;BME280;51077;42.716;23.344;2022-08-21T13:21:38;94616.63;;;26.32;48.48
64668;BME280;51077;42.716;23.344;2022-08-21T13:24:18;94609.00;;;26.35;48.09
64668;BME280;51077;42.716;23.344;2022-08-21T13:26:45;94602.66;;;26.35;47.97
64668;BME280;51077;42.716;23.344;2022-08-21T13:29:13;94605.53;;;26.21;47.88
64668;BME280;51077;42.716;23.344;2022-08-21T13:31:41;94603.66;;;26.25;47.92
64668;BME280;51077;42.716;23.344;2022-08-21T13:34:08;94589.19;;;26.33;47.85
64668;BME280;51077;42.716;23.344;2022-08-21T13:36:39;94583.94;;;26.41;47.80
64668;BME280;51077;42.716;23.344;2022-08-21T13:39:16;94578.31;;;26.41;47.77
64668;BME280;51077;42.716;23.344;2022-08-21T13:41:46;94584.66;;;26.42;47.92
64668;BME280;51077;42.716;23.344;2022-08-21T13:47:02;94593.13;;;26.58;47.77
64668;BME280;51077;42.716;23.344;2022-08-21T13:49:40;94594.69;;;26.61;47.89
64668;BME280;51077;42.716;23.344;2022-08-21T13:52:19;94599.38;;;26.72;47.61
64668;BME280;51077;42.716;23.344;2022-08-21T13:55:06;94593.91;;;26.76;47.89
64668;BME280;51077;42.716;23.344;2022-08-21T13:57:34;94589.84;;;26.79;48.04
64668;BME280;51077;42.716;23.344;2022-08-21T14:00:20;94582.13;;;26.79;47.93
64668;BME280;51077;42.716;23.344;2022-08-21T14:02:51;94591.22;;;26.78;48.04
64668;BME280;51077;42.716;23.344;2022-08-21T14:05:25;94578.88;;;26.69;48.10
64668;BME280;51077;42.716;23.344;2022-08-21T14:08:08;94582.47;;;26.72;48.41